ADDS METAR Data INFO
IDs: Format: Raw Decoded Include TAF

Data at: 0936 UTC 17 Oct 2017

KRGK 170915Z AUTO 00000KT 10SM CLR 06/03 A2998 RMK AO2
KRGK 170855Z AUTO 00000KT 10SM CLR 06/04 A2998 RMK AO2
KRGK 170835Z AUTO 00000KT 10SM CLR 07/03 A2998 RMK AO2
KRGK 170815Z AUTO 00000KT 10SM CLR 07/03 A2998 RMK AO2
KRGK 170755Z AUTO 00000KT 10SM CLR 07/03 A2998 RMK AO2
KRGK 170735Z AUTO 00000KT 10SM CLR 08/03 A2998 RMK AO2
KRGK 170715Z AUTO 00000KT 10SM CLR 08/03 A2998 RMK AO2
KRGK 170655Z AUTO 00000KT 10SM CLR 11/03 A2998 RMK AO2
KRGK 170635Z AUTO 25006KT 10SM CLR 13/02 A2998 RMK AO2
KRGK 170615Z AUTO 00000KT 10SM CLR 13/02 A2997 RMK AO2
KRGK 170556Z AUTO 26005KT 10SM CLR 13/02 A2997 RMK AO2
KRGK 170535Z AUTO 28004KT 10SM CLR 13/02 A2997 RMK AO2
KRGK 170515Z AUTO 27005KT 10SM CLR 12/02 A2997 RMK AO2
KRGK 170455Z AUTO 00000KT 10SM CLR 12/02 A2997 RMK AO2
KRGK 170435Z AUTO 00000KT 10SM CLR 13/02 A2998 RMK AO2
KRGK 170415Z AUTO 00000KT 10SM CLR 14/01 A2998 RMK AO2
KRGK 170355Z AUTO 00000KT 10SM CLR 14/01 A2998 RMK AO2
KRGK 170335Z AUTO 22003KT 10SM CLR 14/01 A2998 RMK AO2
KRGK 170315Z AUTO 22003KT 10SM CLR 14/01 A2998 RMK AO2
KRGK 170255Z AUTO 24005KT 10SM CLR 14/01 A2999 RMK AO2
KRGK 170235Z AUTO 23004KT 10SM CLR 14/01 A2999 RMK AO2
KRGK 170215Z AUTO 20005KT 10SM CLR 14/01 A3000 RMK AO2
KRGK 170155Z AUTO 21004KT 10SM CLR 15/01 A3000 RMK AO2
KRGK 170135Z AUTO 18004KT 10SM CLR 15/01 A3000 RMK AO2
KRGK 170115Z AUTO 00000KT 10SM CLR 13/02 A3001 RMK AO2
KRGK 170055Z AUTO 00000KT 10SM CLR 14/01 A3002 RMK AO2
KRGK 170035Z AUTO 00000KT 10SM CLR 14/01 A3002 RMK AO2
KRGK 170015Z AUTO 18003KT 10SM CLR 16/00 A3002 RMK AO2
KRGK 162355Z AUTO 20004KT 10SM CLR 16/00 A3002 RMK AO2
KRGK 162335Z AUTO 18005KT 10SM CLR 16/00 A3002 RMK AO2
KRGK 162316Z AUTO 18004KT 10SM CLR 17/00 A3002 RMK AO2
KRGK 162255Z AUTO 20006KT 10SM CLR 18/M01 A3004 RMK AO2
KRGK 162235Z AUTO 22006KT 10SM CLR 18/M01 A3004 RMK AO2
KRGK 162216Z AUTO 20004KT 10SM CLR 19/M01 A3004 RMK AO2
KRGK 162155Z AUTO 23010KT 10SM CLR 19/M02 A3005 RMK AO2
KRGK 162135Z AUTO 23010KT 182V252 10SM CLR 19/M02 A3006 RMK AO2
KRGK 162115Z AUTO 24009KT 10SM CLR 19/M02 A3007 RMK AO2
KRGK 162055Z AUTO 26008G11KT 10SM CLR 19/M02 A3008 RMK AO2
KRGK 162035Z AUTO 22012G16KT 10SM CLR 19/M02 A3009 RMK AO2
KRGK 162016Z AUTO 25007KT 10SM CLR 19/M02 A3010 RMK AO2
KRGK 161955Z AUTO 24008KT 10SM CLR 19/M02 A3010 RMK AO2
KRGK 161935Z AUTO 24007KT 212V272 10SM CLR 18/M02 A3012 RMK AO2
KRGK 161916Z AUTO 22008KT 10SM CLR 18/M02 A3013 RMK AO2
KRGK 161855Z AUTO 24007KT 10SM CLR 17/M01 A3014 RMK AO2
KRGK 161835Z AUTO 24008KT 10SM CLR 17/M02 A3016 RMK AO2
KRGK 161816Z AUTO 26007KT 10SM CLR 17/M02 A3017 RMK AO2
KRGK 161755Z AUTO 23008KT 10SM CLR 16/M01 A3018 RMK AO2
KRGK 161735Z AUTO 25009KT 10SM CLR 16/M01 A3021 RMK AO2
KRGK 161716Z AUTO 26011G15KT 10SM CLR 15/00 A3021 RMK AO2
KRGK 161651Z AUTO 26005KT 10SM CLR 14/02 A3022 RMK AO2
KRGK 161635Z AUTO 28005KT 10SM CLR 13/02 A3022 RMK AO2
KRGK 161616Z AUTO 27004KT 10SM CLR 12/03 A3023 RMK AO2
KRGK 161555Z AUTO 00000KT 10SM CLR 11/03 A3023 RMK AO2
KRGK 161535Z AUTO 00000KT 10SM CLR 10/03 A3023 RMK AO2
KRGK 161515Z AUTO 00000KT 10SM CLR 09/03 A3023 RMK AO2
KRGK 161455Z AUTO 00000KT 10SM CLR 08/03 A3023 RMK AO2
KRGK 161435Z AUTO 00000KT 10SM CLR 07/03 A3023 RMK AO2
KRGK 161415Z AUTO 00000KT 10SM CLR 07/03 A3023 RMK AO2
KRGK 161355Z AUTO 00000KT 10SM CLR 06/04 A3023 RMK AO2
KRGK 161335Z AUTO 00000KT 10SM CLR 04/03 A3024 RMK AO2
KRGK 161315Z AUTO 00000KT 7SM CLR 02/01 A3023 RMK AO2
KRGK 161255Z AUTO 00000KT 7SM CLR 01/00 A3023 RMK AO2
KRGK 161235Z AUTO 00000KT 7SM CLR 01/00 A3022 RMK AO2
KRGK 161215Z AUTO 00000KT 7SM CLR 01/00 A3022 RMK AO2
KRGK 161155Z AUTO 00000KT 7SM CLR 01/00 A3023 RMK AO2
KRGK 161136Z AUTO 00000KT 7SM CLR 01/00 A3023 RMK AO2
KRGK 161115Z AUTO 00000KT 7SM CLR 02/01 A3023 RMK AO2
KRGK 161055Z AUTO 00000KT 7SM CLR 01/00 A3023 RMK AO2
KRGK 161036Z AUTO 00000KT 7SM CLR 02/01 A3023 RMK AO2
KRGK 161015Z AUTO 00000KT 7SM SCT055 02/01 A3023 RMK AO2
KRGK 160955Z AUTO 00000KT 7SM CLR 02/01 A3023 RMK AO2
KRGK 160936Z AUTO 00000KT 7SM SCT070 02/01 A3022 RMK AO2
KRGK 160915Z AUTO 00000KT 10SM BKN070 02/01 A3022 RMK AO2
KRGK 160855Z AUTO 00000KT 10SM SCT070 02/01 A3022 RMK AO2
KRGK 160836Z AUTO 36003KT 7SM CLR 02/01 A3022 RMK AO2
KRGK 160815Z AUTO 00000KT 7SM CLR 02/01 A3022 RMK AO2
KRGK 160755Z AUTO 00000KT 7SM CLR 02/01 A3022 RMK AO2
KRGK 160736Z AUTO 00000KT 7SM CLR 02/01 A3022 RMK AO2
KRGK 160715Z AUTO 00000KT 10SM CLR 03/02 A3022 RMK AO2
KRGK 160655Z AUTO 00000KT 10SM CLR 03/02 A3022 RMK AO2
KRGK 160635Z AUTO 34003KT 10SM CLR 03/02 A3021 RMK AO2
KRGK 160615Z AUTO 00000KT 7SM CLR 03/02 A3021 RMK AO2
KRGK 160555Z AUTO 00000KT 10SM CLR 03/02 A3021 RMK AO2
KRGK 160535Z AUTO 00000KT 10SM SCT100 04/02 A3021 RMK AO2
KRGK 160515Z AUTO 00000KT 10SM BKN100 04/03 A3021 RMK AO2
KRGK 160455Z AUTO 00000KT 10SM BKN100 04/03 A3021 RMK AO2
KRGK 160435Z AUTO 00000KT 10SM SCT100 04/03 A3021 RMK AO2
KRGK 160415Z AUTO 00000KT 10SM BKN100 06/03 A3021 RMK AO2
KRGK 160355Z AUTO 00000KT 10SM OVC100 06/03 A3021 RMK AO2
KRGK 160335Z AUTO 00000KT 10SM OVC100 06/04 A3020 RMK AO2
KRGK 160315Z AUTO 00000KT 10SM BKN110 06/03 A3020 RMK AO2
KRGK 160255Z AUTO 01003KT 10SM SCT070 OVC110 07/04 A3020 RMK AO2
KRGK 160235Z AUTO 00000KT 10SM SCT070 OVC110 07/04 A3019 RMK AO2
KRGK 160215Z AUTO 00000KT 10SM BKN080 OVC110 07/04 A3019 RMK AO2
KRGK 160155Z AUTO 00000KT 10SM OVC080 07/04 A3019 RMK AO2
KRGK 160135Z AUTO 00000KT 10SM OVC080 07/04 A3019 RMK AO2
KRGK 160115Z AUTO 00000KT 10SM OVC080 07/04 A3019 RMK AO2
KRGK 160055Z AUTO 00000KT 10SM OVC080 08/03 A3019 RMK AO2
KRGK 160035Z AUTO 00000KT 10SM OVC090 08/04 A3019 RMK AO2
KRGK 160015Z AUTO 00000KT 10SM OVC090 08/03 A3020 RMK AO2
KRGK 152355Z AUTO 00000KT 10SM OVC090 09/02 A3019 RMK AO2
KRGK 152335Z AUTO 00000KT 10SM OVC090 09/02 A3019 RMK AO2
KRGK 152315Z AUTO 28003KT 10SM OVC090 10/01 A3019 RMK AO2
KRGK 152255Z AUTO 29003KT 10SM OVC100 10/01 A3019 RMK AO2
KRGK 152235Z AUTO 28006KT 10SM SCT100 120 11/01 A3018 RMK AO2
KRGK 152215Z AUTO 27006G09KT 10SM BKN120 11/01 A3018 RMK AO2
KRGK 152155Z AUTO 29007KT 10SM SCT120 11/02 A3018 RMK AO2